createdAt,value
2023-03-11T00:03:50.609Z,98415.50
2023-03-11T00:07:52.253Z,98441.84
2023-03-11T00:11:53.694Z,98471.28
2023-03-11T00:15:59.549Z,98479.97
2023-03-11T00:20:01.041Z,98486.25
2023-03-11T00:24:03.608Z,98496.47
2023-03-11T00:28:11.103Z,98495.84
2023-03-11T00:32:12.612Z,98500.25
2023-03-11T00:36:23.365Z,98507.84
2023-03-11T00:40:27.430Z,98520.16
2023-03-11T00:44:28.853Z,98530.13
2023-03-11T00:48:30.332Z,98529.75
2023-03-11T00:52:31.805Z,98541.38
2023-03-11T00:56:33.263Z,98556.03
2023-03-11T01:00:34.971Z,98564.56
2023-03-11T01:04:36.451Z,98586.16
2023-03-11T01:08:37.987Z,98594.94
2023-03-11T01:12:39.448Z,98606.53
2023-03-11T01:16:40.890Z,98622.09
2023-03-11T01:20:42.593Z,98635.06
2023-03-11T01:24:44.165Z,98655.09
2023-03-11T01:28:45.619Z,98668.53
2023-03-11T01:32:47.425Z,98673.63
2023-03-11T01:36:48.925Z,98687.25
2023-03-11T01:40:53.974Z,98699.19
2023-03-11T01:44:55.658Z,98712.41
2023-03-11T01:49:02.415Z,98732.03
2023-03-11T01:53:05.549Z,98737.16
2023-03-11T01:57:12.083Z,98749.88
2023-03-11T02:01:13.580Z,98761.34
2023-03-11T02:05:15.126Z,98781.25
2023-03-11T02:09:16.514Z,98799.66
2023-03-11T02:13:18.867Z,98815.22
2023-03-11T02:17:22.084Z,98823.06
2023-03-11T02:21:27.973Z,98841.56
2023-03-11T02:26:02.689Z,98862.59
2023-03-11T02:30:05.495Z,98885.03
2023-03-11T02:34:15.829Z,98894.22
2023-03-11T02:38:17.360Z,98916.91
2023-03-11T02:42:31.384Z,98926.03
2023-03-11T02:46:33.165Z,98941.50
2023-03-11T02:50:37.123Z,98950.00
2023-03-11T02:54:38.548Z,98970.44
2023-03-11T02:58:40.007Z,98988.97
2023-03-11T03:02:42.840Z,98997.97
2023-03-11T03:06:44.339Z,99017.41
2023-03-11T03:10:45.837Z,99024.44
2023-03-11T03:14:47.639Z,99048.88
2023-03-11T03:18:49.287Z,99059.25
2023-03-11T03:22:50.993Z,99076.44
2023-03-11T03:26:52.424Z,99094.38
2023-03-11T03:30:53.895Z,99112.72
2023-03-11T03:34:58.971Z,99132.56
2023-03-11T03:39:01.533Z,99141.94
2023-03-11T03:43:03.666Z,99166.06
2023-03-11T03:47:05.485Z,99184.44
2023-03-11T03:51:09.997Z,99205.69
2023-03-11T03:55:11.500Z,99209.34
2023-03-11T03:59:13.272Z,99226.28
2023-03-11T04:03:14.727Z,99232.59
2023-03-11T04:07:16.295Z,99237.59
2023-03-11T04:11:17.991Z,99258.81
2023-03-11T04:15:19.458Z,99270.56
2023-03-11T04:19:20.991Z,99289.47
2023-03-11T04:23:22.442Z,99294.75
2023-03-11T04:27:24.112Z,99301.81
2023-03-11T04:31:25.617Z,99312.72
2023-03-11T04:35:27.112Z,99317.22
2023-03-11T04:39:28.605Z,99336.97
2023-03-11T04:43:30.947Z,99342.53
2023-03-11T04:47:32.464Z,99356.38
2023-03-11T04:51:33.928Z,99358.78
2023-03-11T04:55:35.462Z,99366.28
2023-03-11T04:59:36.946Z,99386.63
2023-03-11T05:03:38.356Z,99393.88
2023-03-11T05:07:39.817Z,99415.19
2023-03-11T05:11:41.311Z,99423.72
2023-03-11T05:15:42.797Z,99435.13
2023-03-11T05:19:44.260Z,99442.16
2023-03-11T05:23:45.700Z,99456.75
2023-03-11T05:27:47.182Z,99473.44
2023-03-11T05:31:48.775Z,99484.66
2023-03-11T05:35:51.901Z,99485.91
2023-03-11T05:39:53.602Z,99499.56
2023-03-11T05:43:55.066Z,99509.53
2023-03-11T05:47:56.510Z,99513.53
2023-03-11T05:51:58.884Z,99530.88
2023-03-11T05:56:01.724Z,99542.88
2023-03-11T06:00:12.194Z,99540.16
2023-03-11T06:04:13.845Z,99548.81
2023-03-11T06:08:16.423Z,99552.16
2023-03-11T06:12:18.331Z,99567.44
2023-03-11T06:16:20.185Z,99585.06
2023-03-11T06:20:21.853Z,99585.25
2023-03-11T06:24:23.383Z,99593.72
2023-03-11T06:28:25.671Z,99603.84
2023-03-11T06:32:28.410Z,99623.25
2023-03-11T06:36:29.881Z,99630.94
2023-03-11T06:40:31.421Z,99644.72
2023-03-11T06:44:32.993Z,99645.41
2023-03-11T06:48:34.431Z,99666.06
2023-03-11T06:52:35.882Z,99672.97
2023-03-11T06:56:37.808Z,99675.53
2023-03-11T07:00:41.063Z,99683.41
2023-03-11T07:04:44.094Z,99702.19
2023-03-11T07:08:50.634Z,99708.13
2023-03-11T07:12:52.224Z,99714.19
2023-03-11T07:16:53.958Z,99722.88
2023-03-11T07:20:55.579Z,99733.16
2023-03-11T07:24:57.065Z,99744.72
2023-03-11T07:28:59.083Z,99758.19
2023-03-11T07:33:00.647Z,99767.19
2023-03-11T07:37:02.293Z,99766.22
2023-03-11T07:41:04.645Z,99778.34
2023-03-11T07:45:06.655Z,99779.94
2023-03-11T07:49:08.738Z,99791.00
2023-03-11T07:53:10.220Z,99799.03
2023-03-11T07:57:16.939Z,99819.31
2023-03-11T08:01:21.573Z,99814.34
2023-03-11T08:05:22.975Z,99833.59
2023-03-11T08:09:24.411Z,99831.81
2023-03-11T08:13:25.861Z,99853.88
2023-03-11T08:17:27.350Z,99854.16
2023-03-11T08:21:32.040Z,99868.34
2023-03-11T08:25:33.767Z,99878.47
2023-03-11T08:29:35.713Z,99885.44
2023-03-11T08:33:37.229Z,99900.47
2023-03-11T08:37:38.855Z,99913.66
2023-03-11T08:41:40.344Z,99921.22
2023-03-11T08:45:43.067Z,99930.53
2023-03-11T08:49:44.880Z,99937.63
2023-03-11T08:53:47.246Z,99936.38
2023-03-11T08:57:48.713Z,99948.50
2023-03-11T09:01:50.178Z,99959.84
2023-03-11T09:05:59.273Z,99967.50
2023-03-11T09:10:00.854Z,99972.53
2023-03-11T09:14:02.382Z,99979.94
2023-03-11T09:18:04.054Z,99984.53
2023-03-11T09:22:05.782Z,99983.50
2023-03-11T09:26:07.389Z,99995.22
2023-03-11T09:30:10.235Z,100001.38
2023-03-11T09:34:16.192Z,100007.69
2023-03-11T09:38:17.753Z,100010.88
2023-03-11T09:42:30.981Z,100025.13
2023-03-11T09:46:41.365Z,100029.19
2023-03-11T09:50:53.539Z,100045.03
2023-03-11T09:54:56.067Z,100045.13
2023-03-11T09:59:06.628Z,100047.69
2023-03-11T10:03:21.329Z,100047.06
2023-03-11T10:07:28.866Z,100052.22
2023-03-11T10:12:21.409Z,100069.09
2023-03-11T10:16:42.455Z,100076.09
2023-03-11T10:20:55.844Z,100085.78
2023-03-11T10:25:05.267Z,100091.19
2023-03-11T10:29:15.773Z,100112.88
2023-03-11T10:33:24.199Z,100118.59
2023-03-11T10:37:49.244Z,100122.94
2023-03-11T10:41:55.232Z,100115.56
2023-03-11T10:45:56.757Z,100124.09
2023-03-11T10:49:58.233Z,100130.09
2023-03-11T10:54:01.736Z,100137.94
2023-03-11T10:58:13.165Z,100128.63
2023-03-11T11:02:29.813Z,100138.28
2023-03-11T11:06:35.232Z,100138.69
2023-03-11T11:10:37.372Z,100144.22
2023-03-11T11:14:51.219Z,100147.63
2023-03-11T11:19:03.453Z,100146.72
2023-03-11T11:23:05.007Z,100150.25
2023-03-11T11:27:21.098Z,100148.09
2023-03-11T11:31:25.682Z,100147.13
2023-03-11T11:35:27.303Z,100154.25
2023-03-11T11:39:33.029Z,100158.00
2023-03-11T11:43:54.718Z,100152.00
2023-03-11T11:48:01.188Z,100148.97
2023-03-11T11:52:12.150Z,100148.41
2023-03-11T11:56:13.797Z,100155.09
2023-03-11T12:00:21.541Z,100155.88
2023-03-11T12:04:38.354Z,100151.53
2023-03-11T12:09:05.165Z,100160.84
2023-03-11T12:13:25.230Z,100161.84
2023-03-11T12:17:29.027Z,100164.25
2023-03-11T12:21:48.742Z,100159.38
2023-03-11T12:25:58.134Z,100173.25
2023-03-11T12:30:05.000Z,100173.75
2023-03-11T12:34:11.626Z,100180.34
2023-03-11T12:38:13.251Z,100184.88
2023-03-11T12:42:16.299Z,100195.16
2023-03-11T12:46:18.811Z,100186.19
2023-03-11T12:50:43.650Z,100194.69
2023-03-11T12:54:47.767Z,100195.94
2023-03-11T12:59:13.591Z,100193.69
2023-03-11T13:03:21.056Z,100199.31
2023-03-11T13:07:22.516Z,100197.75
2023-03-11T13:11:32.431Z,100205.91
2023-03-11T13:15:35.340Z,100215.81
2023-03-11T13:19:48.689Z,100224.81
2023-03-11T13:23:50.188Z,100220.94
2023-03-11T13:27:54.854Z,100234.84
2023-03-11T13:32:22.704Z,100239.63
2023-03-11T13:36:45.744Z,100252.66
2023-03-11T13:40:47.681Z,100253.25
2023-03-11T13:44:49.782Z,100267.03
2023-03-11T13:48:56.990Z,100261.56
2023-03-11T13:53:02.420Z,100275.38
2023-03-11T13:57:04.122Z,100283.59
2023-03-11T14:01:05.639Z,100284.44
2023-03-11T14:05:15.679Z,100285.66
2023-03-11T14:09:22.085Z,100277.56
2023-03-11T14:13:24.913Z,100289.75
2023-03-11T14:17:26.552Z,100293.00
2023-03-11T14:21:28.186Z,100284.69
2023-03-11T14:25:36.301Z,100289.31
2023-03-11T14:29:40.326Z,100290.91
2023-03-11T14:33:41.847Z,100284.34
2023-03-11T14:37:43.740Z,100293.53
2023-03-11T14:41:45.318Z,100304.31
2023-03-11T14:45:48.764Z,100308.50
2023-03-11T14:49:53.129Z,100308.16
2023-03-11T14:54:25.335Z,100308.25
2023-03-11T14:58:35.919Z,100313.28
2023-03-11T15:02:43.228Z,100301.16
2023-03-11T15:06:46.521Z,100319.91
2023-03-11T15:11:22.076Z,100314.69
2023-03-11T15:15:28.832Z,100316.16
2023-03-11T15:19:31.990Z,100310.44
2023-03-11T15:23:36.197Z,100323.13
2023-03-11T15:27:39.402Z,100324.56
2023-03-11T15:31:44.836Z,100331.38
2023-03-11T15:35:47.844Z,100339.91
2023-03-11T15:39:52.105Z,100337.47
2023-03-11T15:43:54.791Z,100339.97
2023-03-11T15:47:56.274Z,100339.91
2023-03-11T15:51:59.667Z,100353.72
2023-03-11T15:56:08.272Z,100364.25
2023-03-11T16:00:19.653Z,100359.59
2023-03-11T16:04:22.159Z,100366.22
2023-03-11T16:08:23.713Z,100370.88
2023-03-11T16:12:25.246Z,100374.59
2023-03-11T16:16:27.001Z,100381.38
2023-03-11T16:20:33.256Z,100393.94
2023-03-11T16:24:34.767Z,100395.72
2023-03-11T16:28:36.212Z,100393.72
2023-03-11T16:32:37.696Z,100394.38
2023-03-11T16:36:39.197Z,100407.91
2023-03-11T16:40:40.643Z,100412.78
2023-03-11T16:44:42.252Z,100420.13
2023-03-11T16:48:43.688Z,100421.91
2023-03-11T16:52:45.206Z,100424.81
2023-03-11T16:56:46.702Z,100425.75
2023-03-11T17:00:48.474Z,100437.91
2023-03-11T17:04:50.008Z,100430.31
2023-03-11T17:08:51.678Z,100439.72
2023-03-11T17:12:53.343Z,100443.31
2023-03-11T17:16:54.935Z,100453.66
2023-03-11T17:20:56.423Z,100456.78
2023-03-11T17:24:57.911Z,100459.06
2023-03-11T17:28:59.597Z,100461.22
2023-03-11T17:33:01.130Z,100460.13
2023-03-11T17:37:02.666Z,100461.72
2023-03-11T17:41:08.327Z,100466.91
2023-03-11T17:45:10.393Z,100468.72
2023-03-11T17:49:15.091Z,100470.44
2023-03-11T17:53:16.583Z,100468.84
2023-03-11T17:57:18.051Z,100478.53
2023-03-11T18:01:23.134Z,100479.66
2023-03-11T18:05:24.596Z,100487.34
2023-03-11T18:09:26.448Z,100497.34
2023-03-11T18:13:28.001Z,100489.25
2023-03-11T18:17:29.730Z,100499.91
2023-03-11T18:21:31.727Z,100498.66
2023-03-11T18:25:33.242Z,100505.47
2023-03-11T18:29:34.671Z,100508.72
2023-03-11T18:33:36.618Z,100509.28
2023-03-11T18:37:38.154Z,100504.72
2023-03-11T18:41:40.709Z,100519.75
2023-03-11T18:45:42.224Z,100518.34
2023-03-11T18:49:44.116Z,100516.22
2023-03-11T18:53:45.541Z,100515.66
2023-03-11T18:57:47.460Z,100518.66
2023-03-11T19:01:52.120Z,100531.19
2023-03-11T19:05:53.592Z,100530.09
2023-03-11T19:09:55.070Z,100535.03
2023-03-11T19:13:56.603Z,100522.28
2023-03-11T19:18:06.559Z,100525.13
2023-03-11T19:22:08.640Z,100527.38
2023-03-11T19:26:10.173Z,100525.66
2023-03-11T19:30:12.670Z,100526.59
2023-03-11T19:34:14.260Z,100527.28
2023-03-11T19:38:15.662Z,100530.00
2023-03-11T19:42:17.267Z,100532.91
2023-03-11T19:46:21.378Z,100518.97
2023-03-11T19:50:23.688Z,100541.72
2023-03-11T19:54:25.142Z,100541.00
2023-03-11T19:58:30.235Z,100540.41
2023-03-11T20:02:32.354Z,100542.28
2023-03-11T20:06:34.461Z,100541.28
2023-03-11T20:10:44.536Z,100533.47
2023-03-11T20:14:46.383Z,100534.69
2023-03-11T20:18:51.547Z,100534.69
2023-03-11T20:22:53.015Z,100534.19
2023-03-11T20:26:54.734Z,100547.69
2023-03-11T20:30:56.404Z,100547.34
2023-03-11T20:34:58.241Z,100550.66
2023-03-11T20:39:00.131Z,100551.81
2023-03-11T20:43:01.799Z,100547.28
2023-03-11T20:47:03.419Z,100556.56
2023-03-11T20:51:07.773Z,100546.72
2023-03-11T20:55:10.179Z,100551.91
2023-03-11T20:59:13.978Z,100547.28
2023-03-11T21:03:15.624Z,100556.22
2023-03-11T21:07:17.342Z,100552.78
2023-03-11T21:11:18.948Z,100540.56
2023-03-11T21:15:20.794Z,100534.44
2023-03-11T21:19:22.555Z,100548.56
2023-03-11T21:23:24.213Z,100544.03
2023-03-11T21:27:26.671Z,100548.94
2023-03-11T21:31:29.683Z,100548.72
2023-03-11T21:35:31.532Z,100554.88
2023-03-11T21:39:33.175Z,100553.66
2023-03-11T21:43:35.273Z,100557.94
2023-03-11T21:47:37.719Z,100551.19
2023-03-11T21:51:39.392Z,100541.91
2023-03-11T21:55:42.313Z,100548.41
2023-03-11T21:59:43.989Z,100547.13
2023-03-11T22:03:45.659Z,100539.84
2023-03-11T22:07:47.187Z,100538.06
2023-03-11T22:11:48.825Z,100541.53
2023-03-11T22:15:50.813Z,100545.19
2023-03-11T22:19:52.353Z,100541.66
2023-03-11T22:23:53.895Z,100537.53
2023-03-11T22:27:58.131Z,100536.06
2023-03-11T22:31:59.652Z,100535.44
2023-03-11T22:36:02.466Z,100533.00
2023-03-11T22:40:07.527Z,100541.69
2023-03-11T22:44:09.002Z,100536.94
2023-03-11T22:48:10.448Z,100533.72
2023-03-11T22:52:11.953Z,100531.16
2023-03-11T22:56:15.535Z,100539.13
2023-03-11T23:00:20.779Z,100548.34
2023-03-11T23:04:22.265Z,100541.13
2023-03-11T23:08:23.874Z,100538.09
2023-03-11T23:12:25.387Z,100549.97
2023-03-11T23:16:27.137Z,100544.66
2023-03-11T23:20:28.633Z,100548.06
2023-03-11T23:24:30.114Z,100547.50
2023-03-11T23:28:31.538Z,100550.75
2023-03-11T23:32:33.233Z,100555.06
2023-03-11T23:36:34.771Z,100553.44
2023-03-11T23:40:36.217Z,100554.66
2023-03-11T23:44:37.710Z,100559.88
2023-03-11T23:48:40.931Z,100557.16
2023-03-11T23:52:42.861Z,100554.66
2023-03-11T23:56:44.490Z,100547.59
